Time;durP1;ratioP1;P1;durP2;ratioP2;P2;SDS_P1;SDS_P2;PMS_P1;PMS_P2;Temp;Humidity;BMP_temperature;BMP_pressure;BME280_temperature;BME280_humidity;BME280_pressure;Samples;Min_cycle;Max_cycle;Signal;HPM_P1;HPM_P2
2022/06/24 00:02:01;;;;;;;10.85;1.90;;;;;;;;;;4836358;29;20095;-72
2022/06/24 00:04:30;;;;;;;3.17;1.15;;;;;;;;;;4837991;29;20038;-73
2022/06/24 00:06:56;;;;;;;10.40;1.45;;;;;;;;;;4841729;29;20057;-72
2022/06/24 00:09:26;;;;;;;7.03;1.48;;;;;;;;;;4845103;29;20125;-71
2022/06/24 00:12:04;;;;;;;7.78;1.30;;;;;;;;;;4840575;29;20610;-72
2022/06/24 00:14:29;;;;;;;6.32;1.20;;;;;;;;;;4841869;29;20053;-75
2022/06/24 00:17:00;;;;;;;2.58;1.10;;;;;;;;;;4840792;29;20061;-73
2022/06/24 00:19:27;;;;;;;4.78;1.10;;;;;;;;;;4824195;29;20049;-75
2022/06/24 00:21:57;;;;;;;6.53;1.20;;;;;;;;;;4838091;29;20106;-72
2022/06/24 00:24:23;;;;;;;4.90;1.10;;;;;;;;;;4836559;29;20137;-74
2022/06/24 00:26:49;;;;;;;4.28;1.10;;;;;;;;;;4839493;29;20045;-73
2022/06/24 00:29:18;;;;;;;5.38;1.20;;;;;;;;;;4841966;29;20034;-72
2022/06/24 00:32:03;;;;;;;4.20;1.27;;;;;;;;;;4842769;29;20037;-73
2022/06/24 00:34:28;;;;;;;4.38;1.10;;;;;;;;;;4823367;29;20045;-72
2022/06/24 00:36:54;;;;;;;3.45;1.25;;;;;;;;;;4844055;29;20536;-72
2022/06/24 00:39:19;;;;;;;2.95;1.65;;;;;;;;;;4842217;29;20042;-73
2022/06/24 00:41:52;;;;;;;5.82;0.98;;;;;;;;;;4845849;29;20095;-72
2022/06/24 00:44:19;;;;;;;4.63;1.08;;;;;;;;;;4845542;29;20026;-73
2022/06/24 00:46:46;;;;;;;3.42;1.00;;;;;;;;;;4842522;29;20083;-73
2022/06/24 00:49:15;;;;;;;6.07;1.80;;;;;;;;;;4839220;29;20115;-72
2022/06/24 00:51:41;;;;;;;6.57;1.52;;;;;;;;;;4840541;29;20380;-73
2022/06/24 00:54:11;;;;;;;3.72;1.23;;;;;;;;;;4844098;29;20116;-73
2022/06/24 00:56:37;;;;;;;4.55;1.20;;;;;;;;;;4842419;29;20042;-73
2022/06/24 00:59:06;;;;;;;3.72;0.90;;;;;;;;;;4842125;29;20045;-74
2022/06/24 01:01:39;;;;;;;6.05;1.00;;;;;;;;;;4837246;29;20110;-74
2022/06/24 01:04:07;;;;;;;4.43;1.25;;;;;;;;;;4837241;29;20046;-73
2022/06/24 01:06:33;;;;;;;3.97;0.95;;;;;;;;;;4835171;29;20399;-75
2022/06/24 01:08:59;;;;;;;3.70;1.45;;;;;;;;;;4832134;29;20034;-73
2022/06/24 01:11:34;;;;;;;6.68;1.23;;;;;;;;;;4834339;29;20049;-72
2022/06/24 01:14:00;;;;;;;5.65;0.90;;;;;;;;;;4839465;29;20029;-71
2022/06/24 01:16:27;;;;;;;5.30;1.10;;;;;;;;;;4836451;29;20049;-73
2022/06/24 01:19:05;;;;;;;2.60;0.98;;;;;;;;;;4821447;29;20443;-71
2022/06/24 01:21:31;;;;;;;7.18;1.10;;;;;;;;;;4799842;29;20038;-73
2022/06/24 01:24:11;;;;;;;5.07;1.30;;;;;;;;;;4838020;29;20074;-73
2022/06/24 01:26:39;;;;;;;6.50;0.80;;;;;;;;;;4834842;29;20499;-74
2022/06/24 01:29:06;;;;;;;4.38;1.00;;;;;;;;;;4833683;29;20057;-72
2022/06/24 01:31:32;;;;;;;5.55;1.00;;;;;;;;;;4834741;29;20053;-75
2022/06/24 01:34:00;;;;;;;4.68;1.05;;;;;;;;;;4842162;29;20049;-75
2022/06/24 01:36:25;;;;;;;2.58;0.90;;;;;;;;;;4833554;29;20042;-74
2022/06/24 01:38:51;;;;;;;6.85;1.45;;;;;;;;;;4838948;29;20068;-73
2022/06/24 01:41:17;;;;;;;4.28;0.80;;;;;;;;;;4841975;29;20371;-73
2022/06/24 01:43:44;;;;;;;5.13;1.15;;;;;;;;;;4837213;29;20034;-74
2022/06/24 01:46:11;;;;;;;4.93;1.20;;;;;;;;;;4836645;29;20239;-73
2022/06/24 01:48:37;;;;;;;3.95;0.90;;;;;;;;;;4839694;29;20041;-74
2022/06/24 01:51:04;;;;;;;4.63;1.55;;;;;;;;;;4837731;29;20455;-73
2022/06/24 01:53:30;;;;;;;3.30;0.98;;;;;;;;;;4841851;29;20530;-74
2022/06/24 01:55:55;;;;;;;3.30;1.15;;;;;;;;;;4840076;29;20044;-73
2022/06/24 01:58:21;;;;;;;6.72;1.27;;;;;;;;;;4839685;29;20066;-72
2022/06/24 02:00:46;;;;;;;9.70;1.30;;;;;;;;;;4838718;29;20053;-74
2022/06/24 02:03:11;;;;;;;5.03;1.42;;;;;;;;;;4839869;29;20105;-72
2022/06/24 02:05:38;;;;;;;4.85;1.30;;;;;;;;;;4840615;29;20101;-72
2022/06/24 02:08:04;;;;;;;7.40;1.10;;;;;;;;;;4841039;29;20179;-74
2022/06/24 02:13:28;;;;;;;12.73;1.10;;;;;;;;;;4834543;29;20076;-77
2022/06/24 02:15:56;;;;;;;5.75;1.40;;;;;;;;;;4837333;29;20302;-73
2022/06/24 02:18:22;;;;;;;3.60;1.15;;;;;;;;;;4840303;29;20514;-72
2022/06/24 02:20:49;;;;;;;5.35;1.30;;;;;;;;;;4834344;29;20041;-72
2022/06/24 02:23:15;;;;;;;4.68;1.10;;;;;;;;;;4831986;29;20043;-75
2022/06/24 02:25:40;;;;;;;5.00;1.20;;;;;;;;;;4834387;29;20042;-74
2022/06/24 02:28:06;;;;;;;3.03;1.30;;;;;;;;;;4833222;29;20104;-73
2022/06/24 02:30:31;;;;;;;5.63;1.30;;;;;;;;;;4834463;29;20487;-75
2022/06/24 02:32:56;;;;;;;4.57;1.30;;;;;;;;;;4840159;29;20046;-73
2022/06/24 02:35:22;;;;;;;7.95;1.15;;;;;;;;;;4838463;29;20048;-73
2022/06/24 02:37:47;;;;;;;6.28;1.35;;;;;;;;;;4840693;29;20042;-73
2022/06/24 02:43:00;;;;;;;3.90;1.30;;;;;;;;;;4840049;29;20057;-73
2022/06/24 02:45:26;;;;;;;5.78;1.42;;;;;;;;;;4834788;29;20499;-74
2022/06/24 02:47:51;;;;;;;8.40;1.73;;;;;;;;;;4840329;29;20511;-73
2022/06/24 02:50:17;;;;;;;6.30;1.52;;;;;;;;;;4840761;29;20060;-71
2022/06/24 02:52:42;;;;;;;10.40;1.60;;;;;;;;;;4837172;29;20045;-74
2022/06/24 02:55:08;;;;;;;3.78;1.10;;;;;;;;;;4840791;29;20467;-74
2022/06/24 02:57:34;;;;;;;4.43;1.30;;;;;;;;;;4839735;29;20052;-72
2022/06/24 02:59:59;;;;;;;3.13;1.38;;;;;;;;;;4823135;29;20530;-72
2022/06/24 03:02:25;;;;;;;5.72;1.40;;;;;;;;;;4838895;29;20037;-72
2022/06/24 03:04:51;;;;;;;10.20;2.10;;;;;;;;;;4840712;29;20036;-73
2022/06/24 03:07:17;;;;;;;3.20;1.40;;;;;;;;;;4821797;29;20495;-73
2022/06/24 03:09:43;;;;;;;5.30;2.03;;;;;;;;;;4841283;29;20081;-74
2022/06/24 03:12:09;;;;;;;4.22;1.40;;;;;;;;;;4819313;29;20087;-74
2022/06/24 03:14:34;;;;;;;4.00;1.23;;;;;;;;;;4834227;29;20038;-74
2022/06/24 03:16:59;;;;;;;7.40;1.20;;;;;;;;;;4840591;29;20064;-74
2022/06/24 03:19:25;;;;;;;12.02;1.35;;;;;;;;;;4837174;29;20176;-72
2022/06/24 03:21:51;;;;;;;3.92;1.52;;;;;;;;;;4836251;29;20049;-73
2022/06/24 03:24:18;;;;;;;11.02;1.50;;;;;;;;;;4826917;29;20593;-72
2022/06/24 03:26:43;;;;;;;5.03;1.40;;;;;;;;;;4822402;29;20529;-74
2022/06/24 03:29:09;;;;;;;4.63;1.42;;;;;;;;;;4837096;29;20034;-73
2022/06/24 03:31:34;;;;;;;6.25;2.13;;;;;;;;;;4840581;29;20033;-73
2022/06/24 03:34:00;;;;;;;7.28;1.55;;;;;;;;;;4837561;29;20038;-74
2022/06/24 03:36:25;;;;;;;3.88;1.55;;;;;;;;;;4839294;29;20517;-74
2022/06/24 03:38:52;;;;;;;6.95;1.70;;;;;;;;;;4838295;29;20122;-74
2022/06/24 03:41:18;;;;;;;9.88;1.83;;;;;;;;;;4840849;29;20037;-72
2022/06/24 03:43:45;;;;;;;6.68;2.20;;;;;;;;;;4822567;29;20033;-74
2022/06/24 03:46:11;;;;;;;6.38;1.58;;;;;;;;;;4833905;29;20499;-73
2022/06/24 03:48:36;;;;;;;7.10;1.75;;;;;;;;;;4836683;29;20064;-71
2022/06/24 03:51:02;;;;;;;12.95;1.90;;;;;;;;;;4840650;29;20124;-73
2022/06/24 03:53:31;;;;;;;9.77;1.70;;;;;;;;;;4836905;29;20124;-75
2022/06/24 03:55:56;;;;;;;8.60;1.83;;;;;;;;;;4837303;29;20041;-74
2022/06/24 03:58:23;;;;;;;5.28;2.00;;;;;;;;;;4837036;29;20034;-73
2022/06/24 04:00:49;;;;;;;7.30;2.05;;;;;;;;;;4817247;29;20046;-75
2022/06/24 04:03:15;;;;;;;4.35;2.20;;;;;;;;;;4837941;29;20542;-74
2022/06/24 04:05:41;;;;;;;7.90;2.47;;;;;;;;;;4835776;29;20041;-72
2022/06/24 04:08:07;;;;;;;4.93;1.77;;;;;;;;;;4838458;29;20045;-74
2022/06/24 04:10:32;;;;;;;8.15;2.00;;;;;;;;;;4838107;29;20031;-72
2022/06/24 04:12:58;;;;;;;6.60;1.92;;;;;;;;;;4821097;29;20038;-73
2022/06/24 04:15:23;;;;;;;8.18;2.38;;;;;;;;;;4836594;29;20117;-73
2022/06/24 04:17:49;;;;;;;9.52;2.17;;;;;;;;;;4834069;29;20077;-75
2022/06/24 04:20:17;;;;;;;5.60;2.33;;;;;;;;;;4837257;29;20084;-73
2022/06/24 04:22:43;;;;;;;7.90;2.50;;;;;;;;;;4835435;29;20130;-75
2022/06/24 04:25:09;;;;;;;8.57;2.92;;;;;;;;;;4833314;29;20042;-74
2022/06/24 04:27:35;;;;;;;9.93;3.00;;;;;;;;;;4838864;29;20132;-75
2022/06/24 04:30:11;;;;;;;7.70;2.80;;;;;;;;;;4822920;29;20125;-73
2022/06/24 04:32:37;;;;;;;8.38;2.60;;;;;;;;;;4835631;29;20049;-72
2022/06/24 04:35:04;;;;;;;8.88;3.33;;;;;;;;;;4839661;29;20102;-75
2022/06/24 04:37:30;;;;;;;6.55;2.55;;;;;;;;;;4840650;29;20045;-73
2022/06/24 04:39:58;;;;;;;6.65;2.83;;;;;;;;;;4838308;29;20061;-73
2022/06/24 04:42:24;;;;;;;8.10;2.58;;;;;;;;;;4840554;29;20049;-74
2022/06/24 04:44:49;;;;;;;6.97;2.60;;;;;;;;;;4838845;29;20567;-74
2022/06/24 04:47:15;;;;;;;6.57;2.58;;;;;;;;;;4839494;29;20036;-73
2022/06/24 04:49:40;;;;;;;8.25;2.83;;;;;;;;;;4839056;29;20084;-75
2022/06/24 04:52:06;;;;;;;9.13;2.85;;;;;;;;;;4840330;29;20046;-73
2022/06/24 04:54:31;;;;;;;19.60;3.45;;;;;;;;;;4841817;29;20045;-73
2022/06/24 04:56:57;;;;;;;9.18;2.67;;;;;;;;;;4840564;29;20065;-73
2022/06/24 04:59:22;;;;;;;8.52;2.65;;;;;;;;;;4843333;29;20022;-75
2022/06/24 05:01:48;;;;;;;9.18;2.35;;;;;;;;;;4840316;29;20030;-74
2022/06/24 05:04:13;;;;;;;11.70;2.33;;;;;;;;;;4838598;29;20042;-73
2022/06/24 05:06:39;;;;;;;18.95;2.72;;;;;;;;;;4836757;29;20630;-74
2022/06/24 05:09:04;;;;;;;11.48;2.80;;;;;;;;;;4835807;29;20038;-73
2022/06/24 05:11:30;;;;;;;8.90;3.00;;;;;;;;;;4841585;29;20050;-73
2022/06/24 05:13:55;;;;;;;6.05;2.13;;;;;;;;;;4835790;29;20525;-73
2022/06/24 05:16:21;;;;;;;7.60;3.08;;;;;;;;;;4835550;29;20054;-73
2022/06/24 05:18:46;;;;;;;7.90;2.25;;;;;;;;;;4833175;29;20148;-74
2022/06/24 05:21:11;;;;;;;10.20;2.88;;;;;;;;;;4837624;29;20042;-74
2022/06/24 05:23:37;;;;;;;6.05;2.63;;;;;;;;;;4843636;29;20053;-73
2022/06/24 05:26:03;;;;;;;7.13;2.28;;;;;;;;;;4840588;29;20029;-73
2022/06/24 05:28:29;;;;;;;5.25;2.55;;;;;;;;;;4820961;29;20075;-74
2022/06/24 05:30:57;;;;;;;7.28;2.50;;;;;;;;;;4838876;29;20050;-74
2022/06/24 05:33:24;;;;;;;5.22;2.70;;;;;;;;;;4843545;29;20075;-73
2022/06/24 05:35:55;;;;;;;4.72;2.20;;;;;;;;;;4842870;29;20071;-72
2022/06/24 05:38:22;;;;;;;7.67;2.70;;;;;;;;;;4844117;29;20071;-74
2022/06/24 05:40:49;;;;;;;3.53;2.25;;;;;;;;;;4841243;29;20135;-74
2022/06/24 05:43:15;;;;;;;5.95;2.40;;;;;;;;;;4837087;29;20536;-73
2022/06/24 05:45:41;;;;;;;6.10;2.50;;;;;;;;;;4842021;29;20046;-74
2022/06/24 05:48:06;;;;;;;6.50;2.67;;;;;;;;;;4838459;29;20040;-73
2022/06/24 05:50:32;;;;;;;6.68;2.80;;;;;;;;;;4826496;29;20041;-71
2022/06/24 05:55:41;;;;;;;5.50;2.65;;;;;;;;;;4846242;29;20105;-74
2022/06/24 05:58:06;;;;;;;4.38;2.25;;;;;;;;;;4841904;29;20042;-72
2022/06/24 06:00:32;;;;;;;7.85;3.40;;;;;;;;;;4838557;29;20076;-72
2022/06/24 06:02:58;;;;;;;4.13;2.53;;;;;;;;;;4819620;29;20123;-74
2022/06/24 06:05:24;;;;;;;6.25;2.50;;;;;;;;;;4841346;29;20037;-74
2022/06/24 06:07:50;;;;;;;8.52;2.72;;;;;;;;;;4844033;29;20029;-75
2022/06/24 06:10:15;;;;;;;5.75;2.30;;;;;;;;;;4823908;29;20058;-73
2022/06/24 06:12:40;;;;;;;8.98;2.38;;;;;;;;;;4828123;29;20038;-73
2022/06/24 06:15:06;;;;;;;7.55;2.00;;;;;;;;;;4842572;29;20042;-72
2022/06/24 06:17:33;;;;;;;5.70;1.92;;;;;;;;;;4842547;29;20050;-73
2022/06/24 06:19:59;;;;;;;6.05;2.22;;;;;;;;;;4842158;29;20033;-74
2022/06/24 06:22:24;;;;;;;7.43;1.95;;;;;;;;;;4839669;29;20061;-73
2022/06/24 06:24:49;;;;;;;4.88;2.13;;;;;;;;;;4840688;29;20346;-73
2022/06/24 06:27:15;;;;;;;6.35;1.90;;;;;;;;;;4841945;29;20049;-74
2022/06/24 06:29:40;;;;;;;5.50;2.40;;;;;;;;;;4840461;29;20399;-73
2022/06/24 06:32:06;;;;;;;4.80;1.95;;;;;;;;;;4824436;29;20022;-74
2022/06/24 06:34:32;;;;;;;11.27;2.22;;;;;;;;;;4841590;29;20030;-72
2022/06/24 06:36:58;;;;;;;5.80;2.00;;;;;;;;;;4826837;29;20050;-73
2022/06/24 06:39:23;;;;;;;7.15;1.75;;;;;;;;;;4844055;29;20099;-73
2022/06/24 06:41:48;;;;;;;3.80;1.63;;;;;;;;;;4845523;29;20046;-75
2022/06/24 06:44:16;;;;;;;4.75;1.60;;;;;;;;;;4841506;29;20128;-73
2022/06/24 06:46:42;;;;;;;6.07;2.00;;;;;;;;;;4847044;29;20041;-74
2022/06/24 06:49:08;;;;;;;5.60;2.05;;;;;;;;;;4840113;29;20046;-73
2022/06/24 06:51:33;;;;;;;5.80;1.80;;;;;;;;;;4846177;29;20057;-73
2022/06/24 06:54:00;;;;;;;5.80;2.00;;;;;;;;;;4842394;29;20498;-75
2022/06/24 06:56:25;;;;;;;4.63;1.75;;;;;;;;;;4842675;29;20042;-73
2022/06/24 06:58:51;;;;;;;3.97;1.65;;;;;;;;;;4838515;29;20470;-73
2022/06/24 07:01:16;;;;;;;4.45;2.00;;;;;;;;;;4838080;29;20529;-74
2022/06/24 07:03:41;;;;;;;6.93;1.70;;;;;;;;;;4836404;29;20046;-73
2022/06/24 07:06:07;;;;;;;3.58;1.90;;;;;;;;;;4841491;29;20466;-74
2022/06/24 07:08:32;;;;;;;5.10;2.03;;;;;;;;;;4836843;29;20414;-74
2022/06/24 07:10:58;;;;;;;5.90;1.85;;;;;;;;;;4841646;29;20406;-73
2022/06/24 07:13:23;;;;;;;13.68;2.17;;;;;;;;;;4839356;29;20065;-73
2022/06/24 07:15:49;;;;;;;6.90;2.00;;;;;;;;;;4837704;29;20121;-73
2022/06/24 07:18:15;;;;;;;5.68;1.70;;;;;;;;;;4837621;29;20456;-73
2022/06/24 07:20:43;;;;;;;2.70;1.40;;;;;;;;;;4841732;29;20057;-74
2022/06/24 07:23:08;;;;;;;5.22;1.50;;;;;;;;;;4832951;29;20030;-75
2022/06/24 07:25:38;;;;;;;5.43;1.55;;;;;;;;;;4843593;29;20090;-73
2022/06/24 07:28:06;;;;;;;4.38;1.40;;;;;;;;;;4840529;29;20041;-75
2022/06/24 07:30:31;;;;;;;4.18;1.48;;;;;;;;;;4835766;29;20097;-74
2022/06/24 07:32:57;;;;;;;6.10;1.85;;;;;;;;;;4835732;29;20094;-73
2022/06/24 07:35:23;;;;;;;3.25;1.52;;;;;;;;;;4844263;29;20033;-74
2022/06/24 07:37:49;;;;;;;2.72;1.85;;;;;;;;;;4843181;29;20584;-72
2022/06/24 07:40:15;;;;;;;3.17;1.50;;;;;;;;;;4844852;29;20069;-72
2022/06/24 07:42:41;;;;;;;5.25;1.63;;;;;;;;;;4842309;29;20054;-72
2022/06/24 07:45:07;;;;;;;3.17;1.50;;;;;;;;;;4845726;29;20045;-74
2022/06/24 07:47:35;;;;;;;5.22;1.75;;;;;;;;;;4840742;29;20069;-74
2022/06/24 07:50:01;;;;;;;4.35;1.50;;;;;;;;;;4840037;29;20117;-75
2022/06/24 07:52:27;;;;;;;4.15;1.50;;;;;;;;;;4837909;29;20046;-71
2022/06/24 07:56:56;;;;;;;3.17;1.40;;;;;;;;;;4833208;29;20049;-73
2022/06/24 07:57:38;;;;;;;3.22;1.50;;;;;;;;;;4838616;29;20128;-74
2022/06/24 08:00:04;;;;;;;4.88;1.58;;;;;;;;;;4835357;29;20243;-72
2022/06/24 08:02:29;;;;;;;1.77;1.35;;;;;;;;;;4822942;29;20041;-73
2022/06/24 08:04:54;;;;;;;3.28;1.20;;;;;;;;;;4837267;29;20040;-73
2022/06/24 08:07:20;;;;;;;6.70;1.42;;;;;;;;;;4839803;29;20481;-73
2022/06/24 08:09:45;;;;;;;3.63;1.30;;;;;;;;;;4838750;29;20073;-74
2022/06/24 08:12:10;;;;;;;3.42;1.15;;;;;;;;;;4838367;29;20049;-73
2022/06/24 08:14:36;;;;;;;6.35;1.50;;;;;;;;;;4838843;29;20046;-72
2022/06/24 08:17:02;;;;;;;2.17;1.35;;;;;;;;;;4838049;29;20089;-72
2022/06/24 08:19:27;;;;;;;7.43;1.70;;;;;;;;;;4824304;29;20407;-73
2022/06/24 08:21:52;;;;;;;5.05;1.58;;;;;;;;;;4834276;29;20038;-73
2022/06/24 08:24:18;;;;;;;2.17;1.40;;;;;;;;;;4839774;29;20440;-72
2022/06/24 08:26:43;;;;;;;2.47;1.70;;;;;;;;;;4843195;29;20037;-74
2022/06/24 08:29:10;;;;;;;3.78;1.40;;;;;;;;;;4841039;29;20030;-74
2022/06/24 08:31:36;;;;;;;2.85;1.40;;;;;;;;;;4845155;29;20098;-71
2022/06/24 08:34:02;;;;;;;3.17;1.17;;;;;;;;;;4840763;29;20511;-74
2022/06/24 08:36:28;;;;;;;6.47;1.70;;;;;;;;;;4845876;29;20041;-75
2022/06/24 08:38:54;;;;;;;4.65;1.80;;;;;;;;;;4843117;29;20102;-74
2022/06/24 08:41:25;;;;;;;3.80;1.60;;;;;;;;;;4843829;29;20037;-74
2022/06/24 08:43:52;;;;;;;3.47;1.40;;;;;;;;;;4825650;29;20038;-73
2022/06/24 08:46:18;;;;;;;2.92;1.58;;;;;;;;;;4826596;29;20041;-74
2022/06/24 08:48:43;;;;;;;4.85;1.67;;;;;;;;;;4846591;29;20107;-75
2022/06/24 08:51:12;;;;;;;2.45;1.40;;;;;;;;;;4844401;29;20079;-74
2022/06/24 08:53:39;;;;;;;5.07;2.20;;;;;;;;;;4850385;29;20058;-74
2022/06/24 08:56:06;;;;;;;3.60;1.70;;;;;;;;;;4846214;29;20025;-76
2022/06/24 08:58:33;;;;;;;1.98;1.27;;;;;;;;;;4843397;29;20529;-74
2022/06/24 09:00:59;;;;;;;6.60;1.50;;;;;;;;;;4840222;29;20220;-75
2022/06/24 09:03:24;;;;;;;4.57;1.50;;;;;;;;;;4844088;29;20133;-73
2022/06/24 09:05:51;;;;;;;3.35;1.48;;;;;;;;;;4840013;29;20045;-73
2022/06/24 09:08:17;;;;;;;2.03;1.40;;;;;;;;;;4848065;29;20040;-75
2022/06/24 09:11:06;;;;;;;4.25;1.40;;;;;;;;;;4844270;29;20033;-74
2022/06/24 09:13:48;;;;;;;2.42;1.40;;;;;;;;;;4840513;29;20049;-74
2022/06/24 09:16:18;;;;;;;5.47;1.48;;;;;;;;;;4824490;29;20379;-75
2022/06/24 09:18:54;;;;;;;1.90;1.60;;;;;;;;;;4844586;29;20041;-74
2022/06/24 09:21:23;;;;;;;3.97;1.60;;;;;;;;;;4837909;29;20527;-75
2022/06/24 09:23:58;;;;;;;3.83;1.83;;;;;;;;;;4843447;29;20038;-75
2022/06/24 09:26:41;;;;;;;4.22;1.40;;;;;;;;;;4841374;29;20032;-74
2022/06/24 09:29:10;;;;;;;3.17;1.30;;;;;;;;;;4841845;29;20343;-75
2022/06/24 09:31:36;;;;;;;5.18;2.20;;;;;;;;;;4838570;29;20046;-76
2022/06/24 09:34:20;;;;;;;2.47;1.48;;;;;;;;;;4839449;29;20124;-74
2022/06/24 09:36:47;;;;;;;4.57;1.45;;;;;;;;;;4844145;29;20073;-77
2022/06/24 09:39:14;;;;;;;2.25;1.20;;;;;;;;;;4841426;29;20045;-75
2022/06/24 09:41:50;;;;;;;4.40;1.20;;;;;;;;;;4839170;29;20524;-73
2022/06/24 09:44:17;;;;;;;2.97;1.33;;;;;;;;;;4836143;29;20064;-75
2022/06/24 09:46:44;;;;;;;4.03;1.48;;;;;;;;;;4839495;29;20037;-74
2022/06/24 09:49:19;;;;;;;2.65;1.38;;;;;;;;;;4844085;29;20038;-75
2022/06/24 09:51:45;;;;;;;2.67;1.08;;;;;;;;;;4841546;29;20042;-74
2022/06/24 09:54:12;;;;;;;4.60;1.38;;;;;;;;;;4844964;29;20049;-74
2022/06/24 09:56:39;;;;;;;3.55;1.45;;;;;;;;;;4843328;29;20046;-77
2022/06/24 10:01:50;;;;;;;3.03;1.30;;;;;;;;;;4840107;29;20118;-74
2022/06/24 10:04:20;;;;;;;3.28;1.42;;;;;;;;;;4842020;29;20055;-76
2022/06/24 10:06:49;;;;;;;3.60;1.40;;;;;;;;;;4827622;29;20048;-73
2022/06/24 10:09:24;;;;;;;2.70;1.30;;;;;;;;;;4838239;29;20072;-75
2022/06/24 10:11:50;;;;;;;4.95;1.10;;;;;;;;;;4822749;29;20039;-74
2022/06/24 10:14:16;;;;;;;2.15;1.17;;;;;;;;;;4837423;29;20128;-73
2022/06/24 10:16:48;;;;;;;2.20;1.33;;;;;;;;;;4837045;29;21918;-73
2022/06/24 10:19:14;;;;;;;3.50;1.10;;;;;;;;;;4813200;29;20106;-77
2022/06/24 10:21:40;;;;;;;2.20;1.27;;;;;;;;;;4826832;29;20106;-72
2022/06/24 10:24:13;;;;;;;2.88;1.33;;;;;;;;;;4841358;29;20463;-73
2022/06/24 10:26:42;;;;;;;2.22;1.13;;;;;;;;;;4840673;29;20041;-74
2022/06/24 10:29:07;;;;;;;4.03;1.40;;;;;;;;;;4843897;29;20120;-75
2022/06/24 10:31:44;;;;;;;2.22;1.10;;;;;;;;;;4841368;29;20117;-74
2022/06/24 10:34:11;;;;;;;0.93;0.82;;;;;;;;;;4829484;29;20507;-76
2022/06/24 10:36:37;;;;;;;1.50;1.10;;;;;;;;;;4824951;29;20499;-73
2022/06/24 10:39:11;;;;;;;2.00;0.90;;;;;;;;;;4840953;29;20041;-73
2022/06/24 10:41:44;;;;;;;1.63;1.15;;;;;;;;;;4846973;29;20057;-75
2022/06/24 10:44:24;;;;;;;1.20;1.10;;;;;;;;;;4842927;29;20033;-73
2022/06/24 10:47:04;;;;;;;3.17;1.20;;;;;;;;;;4839368;29;20050;-77
2022/06/24 10:49:56;;;;;;;3.90;1.15;;;;;;;;;;4840961;29;20049;-74
2022/06/24 10:52:37;;;;;;;2.03;1.25;;;;;;;;;;4838518;29;20045;-73
2022/06/24 10:55:15;;;;;;;2.38;0.90;;;;;;;;;;4841596;29;20042;-74
2022/06/24 10:57:55;;;;;;;1.25;1.00;;;;;;;;;;4841021;29;20498;-74
2022/06/24 11:00:26;;;;;;;2.78;1.00;;;;;;;;;;4823338;29;20078;-74
2022/06/24 11:02:56;;;;;;;0.90;0.90;;;;;;;;;;4838574;29;20049;-74
2022/06/24 11:05:25;;;;;;;3.42;1.08;;;;;;;;;;4821430;29;20034;-77
2022/06/24 11:07:51;;;;;;;1.85;0.90;;;;;;;;;;4822149;29;20644;-75
2022/06/24 11:10:22;;;;;;;2.53;1.00;;;;;;;;;;4821131;29;20127;-74
2022/06/24 11:12:52;;;;;;;1.30;1.02;;;;;;;;;;4815288;29;20509;-74
2022/06/24 11:15:18;;;;;;;1.98;1.10;;;;;;;;;;4832170;29;20403;-74
2022/06/24 11:17:43;;;;;;;2.72;0.90;;;;;;;;;;4823871;29;20041;-73
2022/06/24 11:20:13;;;;;;;1.17;0.90;;;;;;;;;;4836608;29;20036;-73
2022/06/24 11:22:46;;;;;;;1.85;0.80;;;;;;;;;;4834248;29;20042;-73
2022/06/24 11:25:14;;;;;;;1.55;1.30;;;;;;;;;;4838152;29;20042;-73
2022/06/24 11:27:39;;;;;;;2.58;1.05;;;;;;;;;;4843188;29;20038;-74
2022/06/24 11:30:07;;;;;;;1.40;0.90;;;;;;;;;;4821975;29;20058;-72
2022/06/24 11:32:55;;;;;;;10.32;1.15;;;;;;;;;;4819425;29;20042;-73
2022/06/24 11:35:23;;;;;;;3.67;1.00;;;;;;;;;;4836426;29;20033;-74
2022/06/24 11:37:49;;;;;;;1.38;1.10;;;;;;;;;;4838466;29;20053;-73
2022/06/24 11:40:23;;;;;;;1.00;1.00;;;;;;;;;;4834774;29;20069;-74
2022/06/24 11:42:48;;;;;;;2.13;1.10;;;;;;;;;;4832650;29;20472;-72
2022/06/24 11:45:14;;;;;;;1.77;1.33;;;;;;;;;;4836351;29;20671;-75
2022/06/24 11:47:39;;;;;;;4.07;1.08;;;;;;;;;;4836109;29;20133;-72
2022/06/24 11:50:05;;;;;;;1.05;1.02;;;;;;;;;;4838590;29;20038;-75
2022/06/24 11:52:49;;;;;;;1.23;1.13;;;;;;;;;;4836581;29;20145;-74
2022/06/24 11:55:42;;;;;;;1.80;1.00;;;;;;;;;;4835150;29;20046;-72
2022/06/24 11:58:11;;;;;;;2.08;1.00;;;;;;;;;;4836766;29;20038;-73
2022/06/24 12:00:40;;;;;;;0.95;0.90;;;;;;;;;;4835840;29;20050;-74
2022/06/24 12:03:10;;;;;;;1.17;0.90;;;;;;;;;;4841348;29;20570;-74
2022/06/24 12:05:44;;;;;;;2.03;0.98;;;;;;;;;;4838068;29;20046;-73
2022/06/24 12:08:10;;;;;;;4.07;1.10;;;;;;;;;;4841537;29;20037;-73
2022/06/24 12:10:47;;;;;;;2.17;1.23;;;;;;;;;;4839693;29;20509;-72
2022/06/24 12:13:24;;;;;;;2.03;1.10;;;;;;;;;;4841079;29;20448;-73
2022/06/24 12:15:49;;;;;;;4.15;1.05;;;;;;;;;;4841031;29;20034;-72
2022/06/24 12:18:19;;;;;;;2.45;1.20;;;;;;;;;;4842117;29;20387;-73
2022/06/24 12:21:04;;;;;;;0.90;0.90;;;;;;;;;;4834477;29;20038;-73
2022/06/24 12:23:34;;;;;;;2.28;1.17;;;;;;;;;;4842091;29;20098;-75
2022/06/24 12:26:13;;;;;;;1.77;1.00;;;;;;;;;;4837754;29;20037;-73
2022/06/24 12:28:38;;;;;;;2.05;0.90;;;;;;;;;;4840997;29;20050;-72
2022/06/24 12:31:08;;;;;;;1.25;0.90;;;;;;;;;;4839168;29;20060;-71
2022/06/24 12:33:36;;;;;;;1.83;0.70;;;;;;;;;;4844048;29;20042;-73
2022/06/24 12:36:04;;;;;;;1.27;1.00;;;;;;;;;;4841810;29;20044;-74
2022/06/24 12:38:29;;;;;;;1.27;0.85;;;;;;;;;;4824509;29;20040;-73
2022/06/24 12:41:12;;;;;;;2.35;1.17;;;;;;;;;;4845980;29;20367;-75
2022/06/24 12:43:50;;;;;;;4.32;1.10;;;;;;;;;;4847795;29;20069;-73
2022/06/24 12:46:16;;;;;;;1.40;0.95;;;;;;;;;;4843695;29;20042;-73
2022/06/24 12:51:25;;;;;;;1.08;0.95;;;;;;;;;;4837659;29;20056;-73
2022/06/24 12:53:52;;;;;;;2.15;1.10;;;;;;;;;;4839768;29;20062;-74
2022/06/24 12:56:20;;;;;;;1.13;1.02;;;;;;;;;;4839675;29;20025;-73
2022/06/24 12:58:46;;;;;;;1.40;0.93;;;;;;;;;;4844091;29;20069;-72
2022/06/24 13:01:11;;;;;;;2.97;1.25;;;;;;;;;;4842348;29;20142;-72
2022/06/24 13:03:37;;;;;;;2.65;1.02;;;;;;;;;;4840857;29;20053;-72
2022/06/24 13:06:02;;;;;;;1.05;0.93;;;;;;;;;;4838399;29;20045;-74
2022/06/24 13:08:28;;;;;;;0.85;0.85;;;;;;;;;;4838148;29;20056;-74
2022/06/24 13:10:53;;;;;;;3.15;0.85;;;;;;;;;;4835682;29;20029;-73
2022/06/24 13:13:19;;;;;;;2.28;0.93;;;;;;;;;;4838829;29;20038;-72
2022/06/24 13:15:53;;;;;;;3.60;1.00;;;;;;;;;;4824717;29;20120;-72
2022/06/24 13:18:19;;;;;;;2.50;0.90;;;;;;;;;;4838263;29;20105;-73
2022/06/24 13:20:44;;;;;;;0.90;0.90;;;;;;;;;;4837414;29;20042;-71
2022/06/24 13:23:10;;;;;;;2.22;1.17;;;;;;;;;;4839656;29;20399;-74
2022/06/24 13:25:35;;;;;;;1.48;0.90;;;;;;;;;;4827995;29;20066;-74
2022/06/24 13:28:01;;;;;;;3.38;0.95;;;;;;;;;;4822239;29;20125;-72
2022/06/24 13:30:26;;;;;;;1.15;0.90;;;;;;;;;;4822979;29;20169;-71
2022/06/24 13:32:52;;;;;;;1.88;1.60;;;;;;;;;;4837825;29;20041;-74
2022/06/24 13:35:17;;;;;;;1.50;0.82;;;;;;;;;;4838650;29;20037;-72
2022/06/24 13:37:43;;;;;;;3.53;1.00;;;;;;;;;;4827067;29;20090;-73
2022/06/24 13:40:09;;;;;;;1.60;0.90;;;;;;;;;;4819691;29;20046;-73
2022/06/24 13:42:34;;;;;;;1.58;1.10;;;;;;;;;;4835870;29;20038;-73
2022/06/24 13:45:01;;;;;;;1.85;0.80;;;;;;;;;;4838638;29;20554;-72
2022/06/24 13:47:26;;;;;;;3.33;1.05;;;;;;;;;;4837742;29;20394;-75
2022/06/24 13:49:53;;;;;;;2.17;1.00;;;;;;;;;;4839173;29;20128;-72
2022/06/24 13:52:18;;;;;;;2.35;1.00;;;;;;;;;;4841407;29;20133;-75
2022/06/24 13:54:44;;;;;;;1.02;0.93;;;;;;;;;;4835907;29;20121;-73
2022/06/24 13:57:11;;;;;;;1.08;0.88;;;;;;;;;;4823218;29;20050;-72
2022/06/24 13:59:37;;;;;;;2.67;0.90;;;;;;;;;;4844725;29;20035;-71
2022/06/24 14:02:02;;;;;;;1.30;1.20;;;;;;;;;;4847561;29;20551;-77
2022/06/24 14:04:27;;;;;;;2.47;0.93;;;;;;;;;;4832468;29;20457;-76
2022/06/24 14:06:53;;;;;;;4.10;0.93;;;;;;;;;;4838686;29;20046;-72
2022/06/24 14:09:18;;;;;;;2.88;1.40;;;;;;;;;;4837098;29;20484;-73
2022/06/24 14:11:44;;;;;;;2.95;1.30;;;;;;;;;;4842184;29;20036;-72
2022/06/24 14:14:12;;;;;;;2.17;1.20;;;;;;;;;;4837343;29;20041;-72
2022/06/24 14:16:38;;;;;;;4.63;0.90;;;;;;;;;;4838278;29;20037;-73
2022/06/24 14:19:04;;;;;;;3.50;1.20;;;;;;;;;;4838142;29;20550;-72
2022/06/24 14:21:30;;;;;;;1.65;1.02;;;;;;;;;;4841222;29;20038;-72
2022/06/24 14:26:41;;;;;;;2.00;1.00;;;;;;;;;;4844552;29;20065;-72
2022/06/24 14:29:07;;;;;;;1.52;0.98;;;;;;;;;;4838397;29;20109;-73
2022/06/24 14:31:32;;;;;;;2.55;1.00;;;;;;;;;;4839061;29;20030;-72
2022/06/24 14:33:57;;;;;;;2.95;1.10;;;;;;;;;;4842600;29;20559;-72
2022/06/24 14:36:23;;;;;;;1.60;0.80;;;;;;;;;;4844747;29;20451;-72
2022/06/24 14:41:33;;;;;;;1.13;0.80;;;;;;;;;;4845543;29;20611;-73
2022/06/24 14:43:58;;;;;;;2.78;0.80;;;;;;;;;;4837873;29;20042;-72
2022/06/24 14:46:24;;;;;;;1.88;1.33;;;;;;;;;;4843146;29;20038;-72
2022/06/24 14:48:49;;;;;;;3.30;1.10;;;;;;;;;;4840756;29;20046;-73
2022/06/24 14:51:15;;;;;;;1.95;1.00;;;;;;;;;;4837254;29;20050;-73
2022/06/24 14:53:40;;;;;;;4.18;0.90;;;;;;;;;;4842065;29;20086;-74
2022/06/24 14:56:05;;;;;;;2.03;0.88;;;;;;;;;;4841335;29;20049;-73
2022/06/24 14:58:31;;;;;;;2.05;1.00;;;;;;;;;;4840518;29;20029;-73
2022/06/24 15:00:57;;;;;;;1.98;1.00;;;;;;;;;;4827757;29;20130;-75
2022/06/24 15:03:22;;;;;;;1.48;1.20;;;;;;;;;;4841621;29;20127;-73
2022/06/24 15:05:48;;;;;;;5.05;1.20;;;;;;;;;;4841472;29;20098;-74